createdAt,value
2022-10-25T00:01:30.838Z,89.23
2022-10-25T00:04:01.691Z,89.18
2022-10-25T00:06:28.382Z,89.19
2022-10-25T00:08:55.184Z,89.54
2022-10-25T00:11:29.365Z,89.25
2022-10-25T00:13:58.325Z,89.37
2022-10-25T00:16:27.986Z,89.57
2022-10-25T00:18:57.712Z,89.63
2022-10-25T00:21:27.535Z,89.58
2022-10-25T00:23:56.891Z,89.54
2022-10-25T00:26:23.482Z,89.78
2022-10-25T00:28:53.890Z,89.67
2022-10-25T00:31:20.659Z,89.87
2022-10-25T00:33:47.314Z,89.64
2022-10-25T00:36:25.219Z,90.04
2022-10-25T00:38:52.433Z,89.80
2022-10-25T00:41:24.676Z,89.66
2022-10-25T00:43:56.477Z,89.76
2022-10-25T00:46:31.684Z,89.86
2022-10-25T00:49:12.880Z,89.75
2022-10-25T00:51:53.944Z,89.92
2022-10-25T00:54:26.076Z,89.70
2022-10-25T00:56:54.310Z,89.89
2022-10-25T00:59:26.502Z,89.88
2022-10-25T01:01:56.558Z,90.03
2022-10-25T01:04:27.882Z,89.95
2022-10-25T01:06:55.111Z,89.85
2022-10-25T01:09:31.593Z,90.10
2022-10-25T01:11:58.230Z,89.98
2022-10-25T01:14:25.741Z,90.16
2022-10-25T01:17:08.168Z,90.29
2022-10-25T01:20:11.972Z,90.05
2022-10-25T01:22:41.202Z,90.24
2022-10-25T01:25:16.967Z,90.17
2022-10-25T01:28:01.347Z,90.00
2022-10-25T01:30:49.447Z,90.05
2022-10-25T01:33:36.980Z,89.96
2022-10-25T01:36:19.141Z,90.11
2022-10-25T01:38:53.298Z,90.10
2022-10-25T01:41:30.532Z,90.26
2022-10-25T01:44:09.208Z,90.19
2022-10-25T01:46:49.801Z,90.13
2022-10-25T01:49:26.722Z,90.11
2022-10-25T01:51:53.320Z,90.13
2022-10-25T01:54:25.159Z,90.17
2022-10-25T01:57:12.136Z,90.27
2022-10-25T02:00:11.392Z,90.10
2022-10-25T02:02:47.338Z,90.12
2022-10-25T02:05:34.696Z,90.31
2022-10-25T02:08:38.701Z,90.28
2022-10-25T02:11:15.518Z,90.21
2022-10-25T02:14:11.279Z,90.18
2022-10-25T02:16:43.882Z,90.20
2022-10-25T02:19:15.897Z,90.26
2022-10-25T02:21:45.504Z,90.42
2022-10-25T02:24:16.807Z,90.46
2022-10-25T02:26:45.280Z,90.35
2022-10-25T02:29:14.595Z,90.36
2022-10-25T02:31:41.705Z,90.45
2022-10-25T02:34:08.236Z,90.38
2022-10-25T02:36:34.992Z,90.20
2022-10-25T02:39:02.400Z,90.51
2022-10-25T02:41:29.141Z,90.28
2022-10-25T02:43:55.831Z,90.70
2022-10-25T02:46:23.613Z,90.49
2022-10-25T02:48:51.022Z,90.63
2022-10-25T02:51:18.408Z,90.42
2022-10-25T02:53:46.458Z,90.58
2022-10-25T02:56:24.061Z,90.75
2022-10-25T02:58:52.259Z,90.59
2022-10-25T03:01:20.055Z,90.83
2022-10-25T03:03:47.566Z,90.73
2022-10-25T03:06:14.954Z,90.75
2022-10-25T03:08:43.416Z,90.71
2022-10-25T03:11:11.538Z,90.53
2022-10-25T03:13:38.552Z,90.78
2022-10-25T03:16:05.483Z,90.86
2022-10-25T03:18:32.120Z,90.84
2022-10-25T03:21:00.896Z,90.83
2022-10-25T03:23:28.531Z,90.77
2022-10-25T03:25:57.040Z,90.79
2022-10-25T03:28:24.424Z,91.09
2022-10-25T03:30:51.033Z,90.86
2022-10-25T03:33:17.745Z,90.91
2022-10-25T03:35:44.346Z,90.93
2022-10-25T03:38:10.983Z,91.19
2022-10-25T03:40:37.666Z,90.93
2022-10-25T03:43:04.379Z,90.84
2022-10-25T03:45:30.942Z,90.90
2022-10-25T03:47:57.534Z,91.20
2022-10-25T03:50:24.173Z,90.93
2022-10-25T03:52:50.753Z,90.91
2022-10-25T03:55:20.267Z,91.06
2022-10-25T03:57:47.077Z,90.94
2022-10-25T04:00:14.673Z,91.12
2022-10-25T04:02:41.266Z,90.93
2022-10-25T04:05:08.395Z,91.06
2022-10-25T04:07:35.001Z,90.99
2022-10-25T04:10:02.589Z,91.06
2022-10-25T04:12:29.177Z,91.04
2022-10-25T04:14:55.780Z,91.21
2022-10-25T04:17:22.438Z,91.10
2022-10-25T04:19:49.007Z,91.21
2022-10-25T04:22:15.629Z,91.55
2022-10-25T04:24:42.329Z,91.13
2022-10-25T04:27:08.905Z,91.19
2022-10-25T04:29:35.497Z,91.18
2022-10-25T04:32:02.134Z,91.38
2022-10-25T04:34:28.729Z,91.37
2022-10-25T04:36:55.321Z,91.41
2022-10-25T04:39:21.937Z,91.29
2022-10-25T04:41:48.761Z,91.16
2022-10-25T04:44:15.499Z,91.28
2022-10-25T04:46:46.307Z,91.27
2022-10-25T04:49:16.090Z,91.22
2022-10-25T04:51:42.849Z,91.32
2022-10-25T04:54:09.457Z,91.31
2022-10-25T04:56:36.046Z,91.37
2022-10-25T04:59:02.596Z,91.39
2022-10-25T05:01:29.442Z,91.38
2022-10-25T05:03:56.160Z,91.50
2022-10-25T05:06:28.119Z,91.65
2022-10-25T05:08:55.238Z,91.50
2022-10-25T05:11:25.343Z,91.66
2022-10-25T05:13:52.312Z,91.71
2022-10-25T05:16:23.112Z,91.65
2022-10-25T05:18:55.015Z,91.63
2022-10-25T05:21:23.425Z,91.82
2022-10-25T05:23:50.246Z,92.01
2022-10-25T05:26:19.757Z,91.91
2022-10-25T05:28:49.067Z,91.92
2022-10-25T05:31:29.531Z,91.82
2022-10-25T05:34:00.411Z,91.71
2022-10-25T05:36:30.430Z,91.87
2022-10-25T05:39:00.324Z,91.85
2022-10-25T05:41:28.190Z,91.66
2022-10-25T05:43:58.067Z,91.94
2022-10-25T05:46:24.787Z,91.92
2022-10-25T05:48:51.949Z,91.94
2022-10-25T05:51:35.876Z,91.82
2022-10-25T05:54:09.757Z,91.87
2022-10-25T05:56:37.149Z,91.81
2022-10-25T05:59:12.545Z,91.94
2022-10-25T06:01:41.473Z,91.86
2022-10-25T06:04:09.406Z,92.04
2022-10-25T06:06:37.432Z,91.86
2022-10-25T06:09:04.652Z,92.01
2022-10-25T06:11:32.412Z,91.95
2022-10-25T06:13:59.418Z,91.88
2022-10-25T06:16:26.052Z,92.04
2022-10-25T06:18:53.906Z,91.93
2022-10-25T06:21:28.130Z,91.72
2022-10-25T06:23:56.099Z,91.85
2022-10-25T06:26:26.468Z,91.96
2022-10-25T06:28:55.595Z,91.89
2022-10-25T06:31:22.836Z,91.83
2022-10-25T06:33:49.513Z,91.99
2022-10-25T06:36:18.839Z,91.94
2022-10-25T06:38:46.685Z,92.17
2022-10-25T06:41:18.626Z,91.86
2022-10-25T06:43:45.928Z,91.96
2022-10-25T06:46:33.338Z,91.78
2022-10-25T06:49:01.776Z,91.87
2022-10-25T06:51:29.482Z,91.86
2022-10-25T06:54:01.169Z,91.92
2022-10-25T06:56:29.010Z,92.11
2022-10-25T06:58:56.046Z,92.12
2022-10-25T07:01:24.523Z,92.05
2022-10-25T07:03:53.632Z,92.26
2022-10-25T07:06:29.318Z,92.08
2022-10-25T07:09:01.996Z,92.19
2022-10-25T07:11:31.114Z,92.11
2022-10-25T07:13:59.546Z,92.00
2022-10-25T07:16:27.998Z,91.99
2022-10-25T07:19:01.624Z,91.93
2022-10-25T07:21:29.930Z,92.25
2022-10-25T07:23:56.458Z,92.05
2022-10-25T07:26:28.985Z,92.21
2022-10-25T07:28:57.259Z,92.31
2022-10-25T07:31:26.303Z,92.26
2022-10-25T07:33:54.940Z,92.12
2022-10-25T07:36:21.738Z,92.07
2022-10-25T07:38:48.378Z,92.46
2022-10-25T07:41:15.062Z,92.35
2022-10-25T07:43:43.434Z,92.10
2022-10-25T07:46:10.321Z,92.45
2022-10-25T07:48:37.499Z,92.24
2022-10-25T07:51:11.942Z,92.14
2022-10-25T07:53:39.113Z,92.48
2022-10-25T07:56:06.163Z,92.06
2022-10-25T07:58:32.768Z,92.06
2022-10-25T08:01:04.766Z,92.34
2022-10-25T08:03:31.554Z,92.30
2022-10-25T08:05:58.456Z,92.11
2022-10-25T08:08:25.427Z,92.15
2022-10-25T08:10:52.273Z,92.40
2022-10-25T08:13:19.615Z,92.10
2022-10-25T08:15:54.072Z,92.36
2022-10-25T08:18:20.893Z,92.07
2022-10-25T08:21:04.028Z,92.21
2022-10-25T08:23:32.486Z,92.22
2022-10-25T08:26:00.135Z,92.06
2022-10-25T08:28:26.838Z,92.35
2022-10-25T08:30:55.629Z,92.23
2022-10-25T08:33:22.690Z,92.47
2022-10-25T08:35:49.422Z,92.23
2022-10-25T08:38:16.003Z,92.24
2022-10-25T08:40:42.493Z,92.35
2022-10-25T08:43:27.227Z,92.46
2022-10-25T08:46:10.665Z,92.37
2022-10-25T08:48:51.586Z,92.28
2022-10-25T08:51:29.225Z,92.26
2022-10-25T08:54:02.249Z,92.69
2022-10-25T08:56:32.963Z,92.53
2022-10-25T08:59:05.662Z,92.73
2022-10-25T09:02:09.205Z,92.74
2022-10-25T09:04:35.944Z,92.53
2022-10-25T09:07:10.081Z,92.61
2022-10-25T09:09:48.226Z,92.48
2022-10-25T09:12:30.797Z,92.56
2022-10-25T09:15:17.300Z,92.47
2022-10-25T09:17:53.105Z,92.49
2022-10-25T09:20:37.300Z,92.52
2022-10-25T09:23:14.204Z,92.38
2022-10-25T09:25:49.177Z,92.59
2022-10-25T09:28:21.542Z,92.55
2022-10-25T09:30:52.308Z,92.29
2022-10-25T09:33:23.598Z,92.62
2022-10-25T09:35:56.014Z,92.33
2022-10-25T09:38:42.515Z,92.04
2022-10-25T09:41:18.795Z,92.23
2022-10-25T09:44:06.733Z,91.77
2022-10-25T09:46:39.929Z,91.92
2022-10-25T09:49:33.972Z,91.73
2022-10-25T09:52:38.166Z,91.77
2022-10-25T09:55:12.406Z,91.51
2022-10-25T09:57:39.005Z,91.23
2022-10-25T10:00:06.298Z,91.34
2022-10-25T10:02:33.219Z,91.30
2022-10-25T10:04:59.908Z,91.44
2022-10-25T10:07:37.249Z,91.23
2022-10-25T10:10:08.084Z,91.07
2022-10-25T10:13:11.841Z,91.33
2022-10-25T10:15:52.628Z,91.10
2022-10-25T10:18:25.718Z,91.27
2022-10-25T10:21:03.413Z,90.90
2022-10-25T10:23:35.115Z,91.33
2022-10-25T10:26:21.916Z,91.10
2022-10-25T10:28:51.137Z,91.00
2022-10-25T10:31:19.406Z,90.90
2022-10-25T10:33:50.650Z,91.03
2022-10-25T10:36:31.365Z,90.75
2022-10-25T10:39:21.974Z,90.69
2022-10-25T10:42:01.000Z,90.93
2022-10-25T10:44:27.701Z,90.82
2022-10-25T10:46:57.519Z,90.72
2022-10-25T10:49:35.398Z,90.59
2022-10-25T10:52:03.231Z,90.49
2022-10-25T10:54:34.724Z,90.57
2022-10-25T10:57:06.989Z,90.38
2022-10-25T10:59:59.584Z,90.54
2022-10-25T11:02:38.204Z,90.13
2022-10-25T11:05:26.042Z,90.35
2022-10-25T11:08:02.355Z,90.11
2022-10-25T11:10:31.703Z,90.21
2022-10-25T11:13:16.412Z,89.93
2022-10-25T11:15:49.207Z,90.13
2022-10-25T11:18:19.068Z,90.17
2022-10-25T11:20:59.389Z,89.95
2022-10-25T11:23:37.668Z,89.87
2022-10-25T11:26:30.154Z,89.83
2022-10-25T11:29:32.095Z,89.84
2022-10-25T11:32:17.211Z,89.60
2022-10-25T11:35:04.823Z,89.41
2022-10-25T11:37:46.589Z,89.79
2022-10-25T11:40:15.916Z,89.48
2022-10-25T11:43:24.692Z,89.35
2022-10-25T11:46:30.087Z,89.60
2022-10-25T11:49:16.322Z,89.55
2022-10-25T11:51:54.892Z,89.61
2022-10-25T11:54:36.194Z,89.30
2022-10-25T11:57:14.899Z,89.25
2022-10-25T12:00:03.027Z,89.50
2022-10-25T12:02:54.174Z,89.19
2022-10-25T12:05:39.297Z,89.46
2022-10-25T12:08:24.438Z,89.19
2022-10-25T12:11:02.312Z,89.40
2022-10-25T12:13:36.009Z,89.23
2022-10-25T12:16:05.770Z,89.51
2022-10-25T12:18:38.167Z,89.70
2022-10-25T12:21:07.237Z,89.39
2022-10-25T12:23:44.180Z,89.24
2022-10-25T12:26:29.721Z,89.33
2022-10-25T12:29:00.416Z,89.61
2022-10-25T12:31:37.277Z,89.53
2022-10-25T12:34:19.733Z,89.63
2022-10-25T12:36:56.692Z,89.28
2022-10-25T12:39:28.952Z,89.42
2022-10-25T12:42:04.716Z,89.17
2022-10-25T12:44:50.675Z,89.49
2022-10-25T12:47:41.942Z,89.33
2022-10-25T12:51:15.251Z,89.34
2022-10-25T12:54:25.823Z,89.29
2022-10-25T12:56:54.986Z,89.46
2022-10-25T12:59:43.361Z,89.40
2022-10-25T13:02:22.067Z,89.33
2022-10-25T13:05:23.162Z,89.53
2022-10-25T13:07:51.509Z,89.62
2022-10-25T13:10:23.629Z,89.61
2022-10-25T13:13:03.461Z,89.67
2022-10-25T13:15:58.875Z,89.65
2022-10-25T13:18:28.397Z,89.43
2022-10-25T13:20:55.289Z,90.02
2022-10-25T13:23:44.228Z,89.95
2022-10-25T13:26:13.886Z,89.63
2022-10-25T13:28:44.813Z,89.56
2022-10-25T13:31:29.470Z,89.57
2022-10-25T13:34:14.322Z,89.96
2022-10-25T13:36:55.933Z,89.76
2022-10-25T13:39:29.698Z,89.99
2022-10-25T13:42:09.443Z,89.74
2022-10-25T13:44:39.372Z,89.67
2022-10-25T13:47:28.136Z,89.48
2022-10-25T13:49:54.885Z,90.03
2022-10-25T13:52:27.234Z,89.62
2022-10-25T13:54:56.461Z,90.19
2022-10-25T13:57:44.537Z,89.85
2022-10-25T14:00:26.867Z,89.79
2022-10-25T14:03:34.644Z,89.97
2022-10-25T14:06:01.138Z,90.06
2022-10-25T14:08:50.779Z,89.90
2022-10-25T14:11:32.488Z,90.10
2022-10-25T14:14:12.514Z,89.68
2022-10-25T14:16:46.980Z,89.65
2022-10-25T14:19:23.036Z,89.51
2022-10-25T14:21:55.181Z,89.89
2022-10-25T14:24:22.469Z,90.14
2022-10-25T14:26:58.402Z,89.83
2022-10-25T14:29:31.579Z,90.13
2022-10-25T14:31:58.947Z,90.02
2022-10-25T14:34:30.115Z,89.92
2022-10-25T14:37:00.550Z,89.88
2022-10-25T14:39:30.619Z,89.80
2022-10-25T14:42:01.626Z,89.99
2022-10-25T14:44:49.109Z,89.90
2022-10-25T14:47:33.376Z,89.82
2022-10-25T14:50:03.559Z,89.92
2022-10-25T14:52:31.221Z,90.10
2022-10-25T14:55:04.722Z,89.89
2022-10-25T14:57:33.331Z,89.77
2022-10-25T15:00:23.007Z,90.13
2022-10-25T15:02:55.007Z,89.96
2022-10-25T15:05:27.461Z,89.82
2022-10-25T15:08:00.047Z,89.89
2022-10-25T15:10:43.637Z,89.66
2022-10-25T15:13:20.571Z,89.95
2022-10-25T15:15:49.543Z,90.01
2022-10-25T15:18:34.856Z,89.80
2022-10-25T15:21:18.438Z,89.95
2022-10-25T15:24:14.984Z,89.89
2022-10-25T15:26:51.378Z,89.78
2022-10-25T15:29:42.735Z,89.83
2022-10-25T15:32:23.967Z,90.02
2022-10-25T15:34:57.724Z,90.21
2022-10-25T15:37:26.502Z,90.11
2022-10-25T15:39:54.795Z,90.16
2022-10-25T15:42:25.780Z,89.98
2022-10-25T15:44:52.434Z,90.22
2022-10-25T15:47:34.409Z,90.15
2022-10-25T15:50:04.008Z,89.91
2022-10-25T15:52:30.725Z,90.32
2022-10-25T15:55:00.089Z,89.98
2022-10-25T15:57:27.395Z,90.03
2022-10-25T15:59:54.098Z,89.93
2022-10-25T16:02:26.304Z,90.02
2022-10-25T16:04:52.987Z,89.95
2022-10-25T16:07:19.601Z,89.78
2022-10-25T16:09:50.781Z,90.23
2022-10-25T16:12:23.882Z,89.88
2022-10-25T16:14:58.608Z,89.97
2022-10-25T16:17:25.254Z,89.87
2022-10-25T16:19:51.825Z,90.26
2022-10-25T16:22:25.922Z,90.22
2022-10-25T16:24:52.519Z,90.02
2022-10-25T16:27:19.873Z,90.14
2022-10-25T16:29:47.151Z,89.91
2022-10-25T16:32:19.480Z,89.93
2022-10-25T16:34:50.473Z,89.88
2022-10-25T16:37:21.891Z,90.28
2022-10-25T16:39:48.450Z,89.99
2022-10-25T16:42:35.686Z,89.86
2022-10-25T16:45:19.889Z,89.97
2022-10-25T16:47:48.749Z,89.88
2022-10-25T16:50:15.657Z,90.17
2022-10-25T16:52:42.449Z,89.83
2022-10-25T16:55:10.223Z,89.99
2022-10-25T16:57:36.991Z,89.99
2022-10-25T17:00:06.189Z,90.22
2022-10-25T17:02:35.096Z,90.17
2022-10-25T17:05:06.245Z,89.99
2022-10-25T17:07:32.900Z,90.18
2022-10-25T17:09:59.489Z,90.14
2022-10-25T17:12:26.135Z,90.15
2022-10-25T17:14:52.724Z,89.77
2022-10-25T17:17:19.900Z,90.17
2022-10-25T17:19:51.705Z,89.88
2022-10-25T17:22:20.556Z,90.18
2022-10-25T17:24:48.326Z,90.29
2022-10-25T17:27:14.945Z,90.16
2022-10-25T17:29:41.503Z,89.94
2022-10-25T17:32:08.051Z,90.00
2022-10-25T17:34:34.618Z,90.22
2022-10-25T17:37:02.327Z,89.86
2022-10-25T17:39:29.277Z,89.92
2022-10-25T17:41:55.855Z,90.24
2022-10-25T17:44:22.389Z,90.23
2022-10-25T17:46:52.260Z,90.05
2022-10-25T17:49:18.891Z,89.91
2022-10-25T17:51:47.469Z,90.03
2022-10-25T17:54:14.887Z,90.34
2022-10-25T17:56:41.463Z,90.03
2022-10-25T17:59:08.368Z,90.35
2022-10-25T18:01:35.487Z,90.46
2022-10-25T18:04:02.249Z,90.17
2022-10-25T18:06:29.075Z,90.39
2022-10-25T18:08:58.878Z,90.14
2022-10-25T18:11:27.115Z,90.10
2022-10-25T18:13:57.790Z,90.11
2022-10-25T18:16:26.968Z,90.22
2022-10-25T18:18:58.291Z,90.28
2022-10-25T18:21:25.681Z,90.42
2022-10-25T18:23:59.876Z,90.55
2022-10-25T18:26:27.305Z,90.23
2022-10-25T18:28:54.271Z,90.38
2022-10-25T18:31:21.224Z,90.28
2022-10-25T18:33:50.626Z,90.06
2022-10-25T18:36:19.703Z,90.27
2022-10-25T18:38:47.410Z,90.27
2022-10-25T18:41:16.815Z,90.35
2022-10-25T18:43:43.466Z,90.20
2022-10-25T18:46:10.664Z,90.41
2022-10-25T18:48:37.362Z,90.22
2022-10-25T18:51:08.474Z,90.19
2022-10-25T18:53:41.164Z,90.28
2022-10-25T18:56:09.957Z,90.36
2022-10-25T18:58:36.696Z,90.27
2022-10-25T19:01:18.098Z,90.39
2022-10-25T19:03:44.974Z,90.13
2022-10-25T19:06:11.730Z,89.87
2022-10-25T19:08:38.477Z,89.94
2022-10-25T19:11:07.362Z,90.43
2022-10-25T19:13:34.253Z,90.04
2022-10-25T19:16:06.780Z,90.05
2022-10-25T19:18:35.395Z,89.68
2022-10-25T19:21:04.356Z,89.72
2022-10-25T19:23:31.749Z,89.75
2022-10-25T19:26:04.205Z,89.95
2022-10-25T19:28:31.509Z,89.94
2022-10-25T19:31:11.388Z,89.73
2022-10-25T19:33:38.061Z,89.65
2022-10-25T19:36:11.563Z,89.25
2022-10-25T19:38:38.838Z,89.42
2022-10-25T19:41:11.116Z,89.68
2022-10-25T19:43:40.662Z,89.35
2022-10-25T19:46:21.066Z,89.63
2022-10-25T19:48:47.845Z,89.61
2022-10-25T19:51:21.418Z,89.35
2022-10-25T19:53:49.154Z,89.38
2022-10-25T19:56:21.748Z,89.28
2022-10-25T19:58:51.843Z,89.15
2022-10-25T20:01:28.945Z,89.24
2022-10-25T20:04:00.758Z,89.07
2022-10-25T20:06:30.481Z,88.81
2022-10-25T20:08:58.996Z,89.05
2022-10-25T20:11:26.412Z,88.57
2022-10-25T20:13:59.780Z,88.67
2022-10-25T20:16:27.894Z,88.63
2022-10-25T20:18:55.454Z,88.66
2022-10-25T20:21:25.001Z,88.61
2022-10-25T20:24:10.246Z,88.61
2022-10-25T20:26:39.636Z,88.59
2022-10-25T20:29:15.632Z,88.37
2022-10-25T20:31:45.170Z,88.40
2022-10-25T20:34:11.809Z,88.32
2022-10-25T20:36:38.635Z,88.29
2022-10-25T20:39:05.258Z,88.50
2022-10-25T20:41:35.056Z,88.27
2022-10-25T20:44:05.710Z,88.34
2022-10-25T20:46:33.587Z,88.41
2022-10-25T20:49:01.177Z,88.15
2022-10-25T20:51:28.253Z,88.25
2022-10-25T20:53:54.895Z,88.23
2022-10-25T20:56:22.399Z,87.96
2022-10-25T20:58:49.165Z,88.07
2022-10-25T21:01:16.121Z,88.31
2022-10-25T21:03:42.855Z,88.12
2022-10-25T21:06:14.458Z,88.12
2022-10-25T21:08:41.461Z,88.01
2022-10-25T21:11:11.547Z,87.96
2022-10-25T21:13:38.340Z,87.97
2022-10-25T21:16:10.548Z,87.77
2022-10-25T21:18:37.686Z,87.86
2022-10-25T21:21:10.314Z,87.57
2022-10-25T21:23:37.294Z,88.02
2022-10-25T21:26:06.112Z,87.84
2022-10-25T21:28:35.766Z,87.67
2022-10-25T21:31:07.018Z,87.62
2022-10-25T21:33:33.808Z,87.70
2022-10-25T21:36:09.618Z,87.80
2022-10-25T21:38:36.356Z,87.75
2022-10-25T21:41:12.632Z,87.84
2022-10-25T21:43:44.698Z,87.68
2022-10-25T21:46:12.383Z,87.82
2022-10-25T21:48:45.033Z,87.63
2022-10-25T21:51:13.357Z,87.94
2022-10-25T21:53:40.249Z,87.88
2022-10-25T21:56:12.905Z,87.71
2022-10-25T21:58:41.090Z,87.89
2022-10-25T22:01:12.472Z,87.89
2022-10-25T22:03:39.950Z,88.02
2022-10-25T22:06:08.757Z,88.09
2022-10-25T22:08:35.452Z,87.96
2022-10-25T22:11:06.160Z,88.00
2022-10-25T22:13:33.040Z,88.22
2022-10-25T22:16:03.082Z,88.02
2022-10-25T22:18:29.732Z,88.30
2022-10-25T22:21:02.661Z,88.13
2022-10-25T22:23:31.156Z,88.20
2022-10-25T22:26:02.927Z,88.08
2022-10-25T22:28:30.273Z,88.17
2022-10-25T22:31:07.167Z,88.08
2022-10-25T22:33:34.673Z,88.20
2022-10-25T22:36:07.191Z,88.12
2022-10-25T22:38:35.962Z,88.29
2022-10-25T22:41:11.118Z,88.37
2022-10-25T22:43:38.836Z,88.33
2022-10-25T22:46:17.309Z,88.59
2022-10-25T22:48:47.913Z,88.56
2022-10-25T22:51:15.054Z,88.50
2022-10-25T22:53:42.204Z,88.53
2022-10-25T22:56:26.104Z,88.73
2022-10-25T22:59:01.283Z,88.46
2022-10-25T23:01:30.050Z,88.76
2022-10-25T23:03:59.535Z,88.68
2022-10-25T23:06:36.585Z,88.62
2022-10-25T23:09:05.893Z,88.57
2022-10-25T23:11:34.640Z,88.73
2022-10-25T23:14:05.255Z,88.68
2022-10-25T23:16:31.960Z,89.02
2022-10-25T23:18:58.676Z,89.00
2022-10-25T23:21:28.065Z,88.82
2022-10-25T23:23:57.612Z,89.37
2022-10-25T23:26:28.887Z,89.27
2022-10-25T23:28:59.013Z,89.18
2022-10-25T23:31:26.600Z,89.22
2022-10-25T23:33:55.423Z,89.14
2022-10-25T23:36:24.238Z,89.49
2022-10-25T23:38:55.055Z,89.47
2022-10-25T23:41:22.616Z,89.48
2022-10-25T23:43:49.407Z,89.53
2022-10-25T23:46:16.299Z,89.65
2022-10-25T23:48:42.918Z,89.42
2022-10-25T23:51:12.801Z,89.66
2022-10-25T23:53:40.063Z,89.68
2022-10-25T23:56:11.213Z,89.82
2022-10-25T23:58:44.996Z,89.79
